createdAt,value
2022-11-29T00:16:01.042Z,3
2022-11-29T01:36:00.959Z,2.9
2022-11-29T01:56:00.952Z,2.9
2022-11-29T02:16:00.928Z,2.88
2022-11-29T02:36:00.848Z,2.81
2022-11-29T02:56:00.816Z,2.76
2022-11-29T03:56:00.735Z,2.74
2022-11-29T04:16:00.705Z,2.76
2022-11-29T04:36:00.666Z,2.76
2022-11-29T04:56:00.691Z,2.78
2022-11-29T05:16:00.716Z,2.79
2022-11-29T05:36:07.627Z,2.77
2022-11-29T05:56:07.562Z,2.76
2022-11-29T06:16:07.636Z,2.78
2022-11-29T06:36:00.513Z,2.85
2022-11-29T06:56:00.455Z,2.89
2022-11-29T07:16:07.638Z,2.91
2022-11-29T07:36:00.422Z,2.95
2022-11-29T07:56:00.424Z,3.06
2022-11-29T08:16:00.417Z,3.18
2022-11-29T08:36:00.331Z,3.25
2022-11-29T08:56:00.304Z,3.37
2022-11-29T09:16:00.414Z,3.57
2022-11-29T09:36:00.235Z,3.81
2022-11-29T09:56:00.242Z,4.01
2022-11-29T10:16:00.219Z,4.27
2022-11-29T10:36:00.127Z,4.35
2022-11-29T10:56:00.117Z,4.4
2022-11-29T11:16:00.167Z,4.59
2022-11-29T11:36:00.097Z,4.66
2022-11-29T11:56:00.035Z,4.67
2022-11-29T12:16:00.011Z,4.7
2022-11-29T12:35:59.984Z,4.72
2022-11-29T12:55:59.927Z,4.75
2022-11-29T13:15:59.931Z,4.78
2022-11-29T13:35:59.993Z,4.8
2022-11-29T13:55:59.864Z,4.81
2022-11-29T14:15:59.866Z,4.81
2022-11-29T14:35:59.744Z,4.79
2022-11-29T14:55:59.728Z,4.7
2022-11-29T15:16:03.059Z,4.53
2022-11-29T15:35:59.662Z,4.43
2022-11-29T15:55:59.639Z,4.37
2022-11-29T16:15:59.733Z,4.34
2022-11-29T16:35:59.556Z,4.34
2022-11-29T16:55:59.524Z,4.34
2022-11-29T17:15:59.787Z,4.34
2022-11-29T17:35:59.461Z,4.34
2022-11-29T17:55:59.478Z,4.3
2022-11-29T18:15:59.420Z,4.34
2022-11-29T18:35:59.387Z,4.34
2022-11-29T18:55:59.351Z,4.4
2022-11-29T19:15:59.381Z,4.42
2022-11-29T19:35:59.278Z,4.42
2022-11-29T19:55:59.563Z,4.42
2022-11-29T20:35:59.200Z,4.44
2022-11-29T20:55:59.179Z,4.49
2022-11-29T21:15:59.173Z,4.5
2022-11-29T21:35:59.131Z,4.52
2022-11-29T21:55:59.051Z,4.52
2022-11-29T22:15:59.080Z,4.52
2022-11-29T22:35:59.038Z,4.5
2022-11-29T23:15:58.955Z,4.45
2022-11-29T23:35:58.929Z,4.44
2022-11-29T23:55:58.863Z,4.4
